sensor_id;sensor_type;location;lat;lon;timestamp;P1;durP1;ratioP1;P2;durP2;ratioP2
27728;SDS011;15126;42.186;24.340;2023-07-31T00:01:54;2.67;;;2.47;;
27728;SDS011;15126;42.186;24.340;2023-07-31T00:04:21;3.23;;;2.80;;
27728;SDS011;15126;42.186;24.340;2023-07-31T00:06:48;2.90;;;2.70;;
27728;SDS011;15126;42.186;24.340;2023-07-31T00:09:15;3.93;;;3.07;;
27728;SDS011;15126;42.186;24.340;2023-07-31T00:11:43;2.80;;;2.53;;
27728;SDS011;15126;42.186;24.340;2023-07-31T00:14:10;8.27;;;2.70;;
27728;SDS011;15126;42.186;24.340;2023-07-31T00:16:37;6.77;;;2.77;;
27728;SDS011;15126;42.186;24.340;2023-07-31T00:19:06;4.83;;;2.77;;
27728;SDS011;15126;42.186;24.340;2023-07-31T00:21:33;3.23;;;2.90;;
27728;SDS011;15126;42.186;24.340;2023-07-31T00:24:00;3.53;;;3.20;;
27728;SDS011;15126;42.186;24.340;2023-07-31T00:26:29;5.47;;;2.60;;
27728;SDS011;15126;42.186;24.340;2023-07-31T00:28:57;5.87;;;3.20;;
27728;SDS011;15126;42.186;24.340;2023-07-31T00:31:24;5.87;;;2.70;;
27728;SDS011;15126;42.186;24.340;2023-07-31T00:33:51;5.37;;;3.10;;
27728;SDS011;15126;42.186;24.340;2023-07-31T00:36:18;2.43;;;2.23;;
27728;SDS011;15126;42.186;24.340;2023-07-31T00:38:45;3.47;;;2.67;;
27728;SDS011;15126;42.186;24.340;2023-07-31T00:41:12;3.00;;;2.40;;
27728;SDS011;15126;42.186;24.340;2023-07-31T00:43:38;4.57;;;3.00;;
27728;SDS011;15126;42.186;24.340;2023-07-31T00:46:07;4.00;;;2.90;;
27728;SDS011;15126;42.186;24.340;2023-07-31T00:48:35;4.47;;;3.67;;
27728;SDS011;15126;42.186;24.340;2023-07-31T00:51:02;8.77;;;4.70;;
27728;SDS011;15126;42.186;24.340;2023-07-31T00:53:29;3.27;;;3.03;;
27728;SDS011;15126;42.186;24.340;2023-07-31T00:55:56;4.17;;;3.73;;
27728;SDS011;15126;42.186;24.340;2023-07-31T00:58:23;4.47;;;4.00;;
27728;SDS011;15126;42.186;24.340;2023-07-31T01:00:50;3.73;;;3.40;;
27728;SDS011;15126;42.186;24.340;2023-07-31T01:03:18;5.47;;;4.27;;
27728;SDS011;15126;42.186;24.340;2023-07-31T01:05:47;5.40;;;4.17;;
27728;SDS011;15126;42.186;24.340;2023-07-31T01:08:24;8.17;;;3.77;;
27728;SDS011;15126;42.186;24.340;2023-07-31T01:10:59;5.73;;;3.60;;
27728;SDS011;15126;42.186;24.340;2023-07-31T01:13:33;4.60;;;4.20;;
27728;SDS011;15126;42.186;24.340;2023-07-31T01:16:00;5.53;;;4.73;;
27728;SDS011;15126;42.186;24.340;2023-07-31T01:18:31;11.33;;;4.83;;
27728;SDS011;15126;42.186;24.340;2023-07-31T01:21:00;7.07;;;5.63;;
27728;SDS011;15126;42.186;24.340;2023-07-31T01:23:41;7.70;;;4.80;;
27728;SDS011;15126;42.186;24.340;2023-07-31T01:26:36;7.33;;;5.53;;
27728;SDS011;15126;42.186;24.340;2023-07-31T01:29:06;6.20;;;5.67;;
27728;SDS011;15126;42.186;24.340;2023-07-31T01:31:36;7.40;;;5.47;;
27728;SDS011;15126;42.186;24.340;2023-07-31T01:34:05;8.87;;;5.10;;
27728;SDS011;15126;42.186;24.340;2023-07-31T01:36:34;6.13;;;5.57;;
27728;SDS011;15126;42.186;24.340;2023-07-31T01:39:01;8.33;;;6.17;;
27728;SDS011;15126;42.186;24.340;2023-07-31T01:41:29;8.10;;;4.90;;
27728;SDS011;15126;42.186;24.340;2023-07-31T01:43:57;6.03;;;5.43;;
27728;SDS011;15126;42.186;24.340;2023-07-31T01:46:24;7.23;;;5.33;;
27728;SDS011;15126;42.186;24.340;2023-07-31T01:48:51;11.70;;;6.50;;
27728;SDS011;15126;42.186;24.340;2023-07-31T01:51:17;9.17;;;5.47;;
27728;SDS011;15126;42.186;24.340;2023-07-31T01:53:44;6.23;;;5.67;;
27728;SDS011;15126;42.186;24.340;2023-07-31T01:56:11;7.03;;;5.40;;
27728;SDS011;15126;42.186;24.340;2023-07-31T01:58:38;10.70;;;5.40;;
27728;SDS011;15126;42.186;24.340;2023-07-31T02:01:06;8.77;;;5.63;;
27728;SDS011;15126;42.186;24.340;2023-07-31T02:03:33;6.30;;;5.70;;
27728;SDS011;15126;42.186;24.340;2023-07-31T02:05:59;7.20;;;5.60;;
27728;SDS011;15126;42.186;24.340;2023-07-31T02:08:26;7.37;;;5.30;;
27728;SDS011;15126;42.186;24.340;2023-07-31T02:10:53;5.63;;;5.07;;
27728;SDS011;15126;42.186;24.340;2023-07-31T02:13:20;13.87;;;6.00;;
27728;SDS011;15126;42.186;24.340;2023-07-31T02:15:47;10.60;;;6.27;;
27728;SDS011;15126;42.186;24.340;2023-07-31T02:18:17;5.63;;;5.23;;
27728;SDS011;15126;42.186;24.340;2023-07-31T02:20:43;6.67;;;6.17;;
27728;SDS011;15126;42.186;24.340;2023-07-31T02:23:14;11.10;;;5.70;;
27728;SDS011;15126;42.186;24.340;2023-07-31T02:25:41;6.70;;;6.17;;
27728;SDS011;15126;42.186;24.340;2023-07-31T02:28:08;6.63;;;6.13;;
27728;SDS011;15126;42.186;24.340;2023-07-31T02:30:35;6.77;;;6.10;;
27728;SDS011;15126;42.186;24.340;2023-07-31T02:33:03;6.13;;;5.47;;
27728;SDS011;15126;42.186;24.340;2023-07-31T02:35:31;9.13;;;6.27;;
27728;SDS011;15126;42.186;24.340;2023-07-31T02:37:58;5.80;;;5.37;;
27728;SDS011;15126;42.186;24.340;2023-07-31T02:40:25;8.23;;;6.33;;
27728;SDS011;15126;42.186;24.340;2023-07-31T02:42:51;8.13;;;6.63;;
27728;SDS011;15126;42.186;24.340;2023-07-31T02:45:18;5.37;;;4.87;;
27728;SDS011;15126;42.186;24.340;2023-07-31T02:47:47;9.30;;;5.47;;
27728;SDS011;15126;42.186;24.340;2023-07-31T02:50:13;6.93;;;5.80;;
27728;SDS011;15126;42.186;24.340;2023-07-31T02:52:42;6.03;;;5.53;;
27728;SDS011;15126;42.186;24.340;2023-07-31T02:55:08;6.93;;;6.40;;
27728;SDS011;15126;42.186;24.340;2023-07-31T02:57:35;7.07;;;6.33;;
27728;SDS011;15126;42.186;24.340;2023-07-31T03:00:02;7.23;;;5.90;;
27728;SDS011;15126;42.186;24.340;2023-07-31T03:02:31;6.93;;;6.43;;
27728;SDS011;15126;42.186;24.340;2023-07-31T03:04:58;7.07;;;6.47;;
27728;SDS011;15126;42.186;24.340;2023-07-31T03:07:25;8.13;;;7.33;;
27728;SDS011;15126;42.186;24.340;2023-07-31T03:09:53;9.43;;;8.63;;
27728;SDS011;15126;42.186;24.340;2023-07-31T03:12:19;10.13;;;9.27;;
27728;SDS011;15126;42.186;24.340;2023-07-31T03:14:46;9.17;;;8.47;;
27728;SDS011;15126;42.186;24.340;2023-07-31T03:17:13;8.03;;;6.77;;
27728;SDS011;15126;42.186;24.340;2023-07-31T03:19:40;7.70;;;7.00;;
27728;SDS011;15126;42.186;24.340;2023-07-31T03:22:07;7.53;;;6.83;;
27728;SDS011;15126;42.186;24.340;2023-07-31T03:24:33;6.03;;;5.53;;
27728;SDS011;15126;42.186;24.340;2023-07-31T03:27:04;7.83;;;7.13;;
27728;SDS011;15126;42.186;24.340;2023-07-31T03:29:32;6.60;;;6.03;;
27728;SDS011;15126;42.186;24.340;2023-07-31T03:31:58;6.23;;;5.73;;
27728;SDS011;15126;42.186;24.340;2023-07-31T03:34:26;7.20;;;6.70;;
27728;SDS011;15126;42.186;24.340;2023-07-31T03:36:53;6.60;;;6.00;;
27728;SDS011;15126;42.186;24.340;2023-07-31T03:39:20;8.03;;;7.23;;
27728;SDS011;15126;42.186;24.340;2023-07-31T03:41:46;7.00;;;6.33;;
27728;SDS011;15126;42.186;24.340;2023-07-31T03:44:15;7.40;;;6.70;;
27728;SDS011;15126;42.186;24.340;2023-07-31T03:46:41;6.53;;;5.93;;
27728;SDS011;15126;42.186;24.340;2023-07-31T03:49:10;6.83;;;5.80;;
27728;SDS011;15126;42.186;24.340;2023-07-31T03:51:37;9.43;;;6.73;;
27728;SDS011;15126;42.186;24.340;2023-07-31T03:54:04;8.57;;;6.77;;
27728;SDS011;15126;42.186;24.340;2023-07-31T03:56:32;6.83;;;6.10;;
27728;SDS011;15126;42.186;24.340;2023-07-31T03:58:59;7.20;;;6.53;;
27728;SDS011;15126;42.186;24.340;2023-07-31T04:01:27;9.80;;;6.73;;
27728;SDS011;15126;42.186;24.340;2023-07-31T04:03:54;7.53;;;6.13;;
27728;SDS011;15126;42.186;24.340;2023-07-31T04:06:21;6.70;;;6.20;;
27728;SDS011;15126;42.186;24.340;2023-07-31T04:08:48;7.50;;;5.67;;
27728;SDS011;15126;42.186;24.340;2023-07-31T04:11:14;6.40;;;5.80;;
27728;SDS011;15126;42.186;24.340;2023-07-31T04:13:41;9.20;;;6.60;;
27728;SDS011;15126;42.186;24.340;2023-07-31T04:16:08;8.63;;;7.80;;
27728;SDS011;15126;42.186;24.340;2023-07-31T04:18:37;9.73;;;8.90;;
27728;SDS011;15126;42.186;24.340;2023-07-31T04:21:04;8.23;;;7.43;;
27728;SDS011;15126;42.186;24.340;2023-07-31T04:23:31;8.17;;;7.50;;
27728;SDS011;15126;42.186;24.340;2023-07-31T04:25:57;9.40;;;8.60;;
27728;SDS011;15126;42.186;24.340;2023-07-31T04:28:24;8.97;;;7.23;;
27728;SDS011;15126;42.186;24.340;2023-07-31T04:30:53;6.97;;;6.47;;
27728;SDS011;15126;42.186;24.340;2023-07-31T04:33:25;8.57;;;7.70;;
27728;SDS011;15126;42.186;24.340;2023-07-31T04:35:56;8.00;;;7.20;;
27728;SDS011;15126;42.186;24.340;2023-07-31T04:38:23;9.50;;;6.87;;
27728;SDS011;15126;42.186;24.340;2023-07-31T04:40:50;10.20;;;9.30;;
27728;SDS011;15126;42.186;24.340;2023-07-31T04:43:16;8.97;;;8.07;;
27728;SDS011;15126;42.186;24.340;2023-07-31T04:45:45;10.23;;;9.40;;
27728;SDS011;15126;42.186;24.340;2023-07-31T04:48:13;8.83;;;7.93;;
27728;SDS011;15126;42.186;24.340;2023-07-31T04:50:39;9.70;;;8.57;;
27728;SDS011;15126;42.186;24.340;2023-07-31T04:53:08;12.43;;;9.53;;
27728;SDS011;15126;42.186;24.340;2023-07-31T04:55:37;9.83;;;9.00;;
27728;SDS011;15126;42.186;24.340;2023-07-31T04:58:04;10.30;;;9.50;;
27728;SDS011;15126;42.186;24.340;2023-07-31T05:00:31;10.53;;;8.77;;
27728;SDS011;15126;42.186;24.340;2023-07-31T05:02:58;9.87;;;8.97;;
27728;SDS011;15126;42.186;24.340;2023-07-31T05:05:25;9.03;;;8.23;;
27728;SDS011;15126;42.186;24.340;2023-07-31T05:07:51;9.50;;;8.80;;
27728;SDS011;15126;42.186;24.340;2023-07-31T05:10:19;10.57;;;8.50;;
27728;SDS011;15126;42.186;24.340;2023-07-31T05:12:49;10.53;;;9.10;;
27728;SDS011;15126;42.186;24.340;2023-07-31T05:15:16;10.13;;;9.07;;
27728;SDS011;15126;42.186;24.340;2023-07-31T05:17:42;9.10;;;8.27;;
27728;SDS011;15126;42.186;24.340;2023-07-31T05:20:09;12.20;;;9.53;;
27728;SDS011;15126;42.186;24.340;2023-07-31T05:22:44;8.83;;;8.13;;
27728;SDS011;15126;42.186;24.340;2023-07-31T05:25:11;15.50;;;8.77;;
27728;SDS011;15126;42.186;24.340;2023-07-31T05:27:39;10.80;;;9.70;;
27728;SDS011;15126;42.186;24.340;2023-07-31T05:30:06;9.20;;;8.50;;
27728;SDS011;15126;42.186;24.340;2023-07-31T05:32:33;9.93;;;9.07;;
27728;SDS011;15126;42.186;24.340;2023-07-31T05:35:00;9.77;;;8.77;;
27728;SDS011;15126;42.186;24.340;2023-07-31T05:37:27;10.33;;;9.33;;
27728;SDS011;15126;42.186;24.340;2023-07-31T05:39:54;9.80;;;9.00;;
27728;SDS011;15126;42.186;24.340;2023-07-31T05:42:21;10.63;;;9.93;;
27728;SDS011;15126;42.186;24.340;2023-07-31T05:44:54;10.47;;;9.77;;
27728;SDS011;15126;42.186;24.340;2023-07-31T05:47:23;12.07;;;10.87;;
27728;SDS011;15126;42.186;24.340;2023-07-31T05:49:50;13.13;;;12.00;;
27728;SDS011;15126;42.186;24.340;2023-07-31T05:52:17;13.33;;;12.23;;
27728;SDS011;15126;42.186;24.340;2023-07-31T05:54:44;12.55;;;11.65;;
27728;SDS011;15126;42.186;24.340;2023-07-31T05:57:11;13.40;;;12.43;;
27728;SDS011;15126;42.186;24.340;2023-07-31T05:59:38;13.57;;;12.63;;
27728;SDS011;15126;42.186;24.340;2023-07-31T06:02:07;16.40;;;12.93;;
27728;SDS011;15126;42.186;24.340;2023-07-31T06:04:33;16.33;;;14.87;;
27728;SDS011;15126;42.186;24.340;2023-07-31T06:07:00;15.83;;;13.93;;
27728;SDS011;15126;42.186;24.340;2023-07-31T06:09:30;14.03;;;12.60;;
27728;SDS011;15126;42.186;24.340;2023-07-31T06:11:56;13.73;;;12.60;;
27728;SDS011;15126;42.186;24.340;2023-07-31T06:14:23;15.70;;;14.20;;
27728;SDS011;15126;42.186;24.340;2023-07-31T06:16:50;15.03;;;13.93;;
27728;SDS011;15126;42.186;24.340;2023-07-31T06:19:18;15.38;;;14.10;;
27728;SDS011;15126;42.186;24.340;2023-07-31T06:21:48;15.63;;;14.32;;
27728;SDS011;15126;42.186;24.340;2023-07-31T06:24:17;16.83;;;15.63;;
27728;SDS011;15126;42.186;24.340;2023-07-31T06:26:45;17.20;;;15.80;;
27728;SDS011;15126;42.186;24.340;2023-07-31T06:29:12;18.48;;;16.88;;
27728;SDS011;15126;42.186;24.340;2023-07-31T06:31:40;20.90;;;19.20;;
27728;SDS011;15126;42.186;24.340;2023-07-31T06:34:07;20.75;;;19.25;;
27728;SDS011;15126;42.186;24.340;2023-07-31T06:36:35;23.70;;;21.90;;
27728;SDS011;15126;42.186;24.340;2023-07-31T06:39:05;24.63;;;22.45;;
27728;SDS011;15126;42.186;24.340;2023-07-31T06:41:32;24.23;;;22.33;;
27728;SDS011;15126;42.186;24.340;2023-07-31T06:43:58;26.43;;;24.43;;
27728;SDS011;15126;42.186;24.340;2023-07-31T06:46:25;26.13;;;24.13;;
27728;SDS011;15126;42.186;24.340;2023-07-31T06:48:52;28.08;;;25.77;;
27728;SDS011;15126;42.186;24.340;2023-07-31T06:51:20;26.15;;;23.92;;
27728;SDS011;15126;42.186;24.340;2023-07-31T06:53:48;26.52;;;24.58;;
27728;SDS011;15126;42.186;24.340;2023-07-31T06:56:15;27.30;;;25.30;;
27728;SDS011;15126;42.186;24.340;2023-07-31T06:58:42;28.92;;;26.45;;
27728;SDS011;15126;42.186;24.340;2023-07-31T07:01:09;27.15;;;24.83;;
27728;SDS011;15126;42.186;24.340;2023-07-31T07:03:35;29.33;;;26.73;;
27728;SDS011;15126;42.186;24.340;2023-07-31T07:06:02;28.50;;;25.93;;
27728;SDS011;15126;42.186;24.340;2023-07-31T07:08:29;29.10;;;26.83;;
27728;SDS011;15126;42.186;24.340;2023-07-31T07:10:57;28.93;;;26.73;;
27728;SDS011;15126;42.186;24.340;2023-07-31T07:13:26;29.27;;;26.93;;
27728;SDS011;15126;42.186;24.340;2023-07-31T07:15:53;28.40;;;25.60;;
27728;SDS011;15126;42.186;24.340;2023-07-31T07:18:20;28.23;;;25.80;;
27728;SDS011;15126;42.186;24.340;2023-07-31T07:20:47;26.60;;;24.33;;
27728;SDS011;15126;42.186;24.340;2023-07-31T07:23:15;26.83;;;24.73;;
27728;SDS011;15126;42.186;24.340;2023-07-31T07:25:42;29.20;;;27.00;;
27728;SDS011;15126;42.186;24.340;2023-07-31T07:28:11;27.60;;;25.30;;
27728;SDS011;15126;42.186;24.340;2023-07-31T07:30:38;27.45;;;25.38;;
27728;SDS011;15126;42.186;24.340;2023-07-31T07:33:05;26.35;;;24.42;;
27728;SDS011;15126;42.186;24.340;2023-07-31T07:35:32;25.02;;;23.17;;
27728;SDS011;15126;42.186;24.340;2023-07-31T07:38:00;26.02;;;24.10;;
27728;SDS011;15126;42.186;24.340;2023-07-31T07:40:27;23.90;;;22.08;;
27728;SDS011;15126;42.186;24.340;2023-07-31T07:42:56;24.42;;;22.48;;
27728;SDS011;15126;42.186;24.340;2023-07-31T07:45:26;24.23;;;22.45;;
27728;SDS011;15126;42.186;24.340;2023-07-31T07:47:53;22.02;;;20.00;;
27728;SDS011;15126;42.186;24.340;2023-07-31T07:50:22;23.40;;;21.70;;
27728;SDS011;15126;42.186;24.340;2023-07-31T07:52:49;22.67;;;21.00;;
27728;SDS011;15126;42.186;24.340;2023-07-31T07:55:16;21.42;;;19.67;;
27728;SDS011;15126;42.186;24.340;2023-07-31T07:57:43;21.10;;;19.50;;
27728;SDS011;15126;42.186;24.340;2023-07-31T08:00:10;21.35;;;19.85;;
27728;SDS011;15126;42.186;24.340;2023-07-31T08:02:39;23.27;;;21.45;;
27728;SDS011;15126;42.186;24.340;2023-07-31T08:05:06;21.30;;;19.70;;
27728;SDS011;15126;42.186;24.340;2023-07-31T08:07:34;21.65;;;19.92;;
27728;SDS011;15126;42.186;24.340;2023-07-31T08:10:01;21.52;;;20.08;;
27728;SDS011;15126;42.186;24.340;2023-07-31T08:12:31;19.95;;;18.55;;
27728;SDS011;15126;42.186;24.340;2023-07-31T08:14:57;19.15;;;17.77;;
27728;SDS011;15126;42.186;24.340;2023-07-31T08:17:25;20.45;;;18.95;;
27728;SDS011;15126;42.186;24.340;2023-07-31T08:19:53;18.52;;;17.13;;
27728;SDS011;15126;42.186;24.340;2023-07-31T08:22:21;17.52;;;15.93;;
27728;SDS011;15126;42.186;24.340;2023-07-31T08:24:48;17.23;;;15.85;;
27728;SDS011;15126;42.186;24.340;2023-07-31T08:27:15;17.15;;;15.65;;
27728;SDS011;15126;42.186;24.340;2023-07-31T08:29:42;16.95;;;15.75;;
27728;SDS011;15126;42.186;24.340;2023-07-31T08:32:09;16.10;;;14.90;;
27728;SDS011;15126;42.186;24.340;2023-07-31T08:34:35;16.90;;;15.70;;
27728;SDS011;15126;42.186;24.340;2023-07-31T08:37:06;16.73;;;15.32;;
27728;SDS011;15126;42.186;24.340;2023-07-31T08:39:33;15.23;;;13.93;;
27728;SDS011;15126;42.186;24.340;2023-07-31T08:42:00;12.73;;;11.82;;
27728;SDS011;15126;42.186;24.340;2023-07-31T08:44:29;11.95;;;10.95;;
27728;SDS011;15126;42.186;24.340;2023-07-31T08:46:58;12.00;;;11.07;;
27728;SDS011;15126;42.186;24.340;2023-07-31T08:49:25;12.55;;;11.23;;
27728;SDS011;15126;42.186;24.340;2023-07-31T08:51:52;10.68;;;9.98;;
27728;SDS011;15126;42.186;24.340;2023-07-31T08:54:24;12.18;;;11.20;;
27728;SDS011;15126;42.186;24.340;2023-07-31T08:56:54;13.88;;;12.55;;
27728;SDS011;15126;42.186;24.340;2023-07-31T08:59:22;11.18;;;10.38;;
27728;SDS011;15126;42.186;24.340;2023-07-31T09:01:51;11.10;;;10.15;;
27728;SDS011;15126;42.186;24.340;2023-07-31T09:04:21;11.88;;;10.80;;
27728;SDS011;15126;42.186;24.340;2023-07-31T09:06:51;11.00;;;10.15;;
27728;SDS011;15126;42.186;24.340;2023-07-31T09:09:27;9.60;;;8.90;;
27728;SDS011;15126;42.186;24.340;2023-07-31T09:11:54;9.32;;;8.63;;
27728;SDS011;15126;42.186;24.340;2023-07-31T09:14:22;10.70;;;9.77;;
27728;SDS011;15126;42.186;24.340;2023-07-31T09:16:51;9.13;;;8.63;;
27728;SDS011;15126;42.186;24.340;2023-07-31T09:19:26;9.75;;;8.90;;
27728;SDS011;15126;42.186;24.340;2023-07-31T09:21:53;9.68;;;8.98;;
27728;SDS011;15126;42.186;24.340;2023-07-31T09:24:31;9.30;;;8.70;;
27728;SDS011;15126;42.186;24.340;2023-07-31T09:26:59;9.50;;;8.75;;
27728;SDS011;15126;42.186;24.340;2023-07-31T09:29:27;10.35;;;9.65;;
27728;SDS011;15126;42.186;24.340;2023-07-31T09:31:54;9.90;;;9.00;;
27728;SDS011;15126;42.186;24.340;2023-07-31T09:34:29;9.32;;;8.45;;
27728;SDS011;15126;42.186;24.340;2023-07-31T09:37:02;9.00;;;8.40;;
27728;SDS011;15126;42.186;24.340;2023-07-31T09:39:32;10.32;;;9.32;;
27728;SDS011;15126;42.186;24.340;2023-07-31T09:42:11;9.10;;;8.40;;
27728;SDS011;15126;42.186;24.340;2023-07-31T09:44:38;9.32;;;8.65;;
27728;SDS011;15126;42.186;24.340;2023-07-31T09:47:20;9.05;;;8.25;;
27728;SDS011;15126;42.186;24.340;2023-07-31T09:49:49;8.65;;;7.95;;
27728;SDS011;15126;42.186;24.340;2023-07-31T09:52:16;9.15;;;8.50;;
27728;SDS011;15126;42.186;24.340;2023-07-31T09:54:44;8.57;;;7.88;;
27728;SDS011;15126;42.186;24.340;2023-07-31T09:57:11;8.20;;;7.38;;
27728;SDS011;15126;42.186;24.340;2023-07-31T09:59:45;8.00;;;7.50;;
27728;SDS011;15126;42.186;24.340;2023-07-31T10:02:14;7.53;;;6.93;;
27728;SDS011;15126;42.186;24.340;2023-07-31T10:04:47;8.15;;;7.07;;
27728;SDS011;15126;42.186;24.340;2023-07-31T10:07:18;7.47;;;6.97;;
27728;SDS011;15126;42.186;24.340;2023-07-31T10:09:52;9.05;;;8.20;;
27728;SDS011;15126;42.186;24.340;2023-07-31T10:12:20;7.88;;;7.13;;
27728;SDS011;15126;42.186;24.340;2023-07-31T10:14:57;7.55;;;6.93;;
27728;SDS011;15126;42.186;24.340;2023-07-31T10:17:40;7.15;;;6.65;;
27728;SDS011;15126;42.186;24.340;2023-07-31T10:20:16;7.68;;;6.93;;
27728;SDS011;15126;42.186;24.340;2023-07-31T10:22:45;6.30;;;5.90;;
27728;SDS011;15126;42.186;24.340;2023-07-31T10:25:14;7.05;;;6.55;;
27728;SDS011;15126;42.186;24.340;2023-07-31T10:27:41;7.90;;;6.10;;
27728;SDS011;15126;42.186;24.340;2023-07-31T10:30:10;6.18;;;5.68;;
27728;SDS011;15126;42.186;24.340;2023-07-31T10:32:39;7.70;;;7.15;;
27728;SDS011;15126;42.186;24.340;2023-07-31T10:35:09;6.50;;;6.10;;
27728;SDS011;15126;42.186;24.340;2023-07-31T10:37:37;4.88;;;4.45;;
27728;SDS011;15126;42.186;24.340;2023-07-31T10:40:10;5.35;;;5.00;;
27728;SDS011;15126;42.186;24.340;2023-07-31T10:42:46;5.78;;;5.38;;
27728;SDS011;15126;42.186;24.340;2023-07-31T10:45:14;4.82;;;4.43;;
27728;SDS011;15126;42.186;24.340;2023-07-31T10:47:57;4.75;;;4.35;;
27728;SDS011;15126;42.186;24.340;2023-07-31T10:50:27;5.10;;;4.75;;
27728;SDS011;15126;42.186;24.340;2023-07-31T10:52:55;5.10;;;4.80;;
27728;SDS011;15126;42.186;24.340;2023-07-31T10:55:27;7.00;;;5.38;;
27728;SDS011;15126;42.186;24.340;2023-07-31T10:58:00;6.20;;;5.80;;
27728;SDS011;15126;42.186;24.340;2023-07-31T11:00:32;6.15;;;5.65;;
27728;SDS011;15126;42.186;24.340;2023-07-31T11:03:00;6.05;;;5.53;;
27728;SDS011;15126;42.186;24.340;2023-07-31T11:05:45;5.60;;;5.22;;
27728;SDS011;15126;42.186;24.340;2023-07-31T11:08:14;6.32;;;5.82;;
27728;SDS011;15126;42.186;24.340;2023-07-31T11:10:42;5.10;;;4.70;;
27728;SDS011;15126;42.186;24.340;2023-07-31T11:13:11;5.93;;;5.53;;
27728;SDS011;15126;42.186;24.340;2023-07-31T11:15:38;5.05;;;4.75;;
27728;SDS011;15126;42.186;24.340;2023-07-31T11:18:05;4.90;;;4.50;;
27728;SDS011;15126;42.186;24.340;2023-07-31T11:20:33;4.28;;;3.97;;
27728;SDS011;15126;42.186;24.340;2023-07-31T11:23:05;5.25;;;4.70;;
27728;SDS011;15126;42.186;24.340;2023-07-31T11:25:33;5.18;;;4.70;;
27728;SDS011;15126;42.186;24.340;2023-07-31T11:28:04;5.45;;;5.05;;
27728;SDS011;15126;42.186;24.340;2023-07-31T11:30:33;5.55;;;5.13;;
27728;SDS011;15126;42.186;24.340;2023-07-31T11:33:01;5.55;;;5.07;;
27728;SDS011;15126;42.186;24.340;2023-07-31T11:35:29;5.15;;;4.85;;
27728;SDS011;15126;42.186;24.340;2023-07-31T11:37:57;5.22;;;4.80;;
27728;SDS011;15126;42.186;24.340;2023-07-31T11:40:24;5.35;;;4.95;;
27728;SDS011;15126;42.186;24.340;2023-07-31T11:42:55;6.93;;;6.28;;
27728;SDS011;15126;42.186;24.340;2023-07-31T11:45:28;5.38;;;5.00;;
27728;SDS011;15126;42.186;24.340;2023-07-31T11:47:56;5.65;;;5.15;;
27728;SDS011;15126;42.186;24.340;2023-07-31T11:50:23;5.40;;;5.03;;
27728;SDS011;15126;42.186;24.340;2023-07-31T11:52:52;6.00;;;5.45;;
27728;SDS011;15126;42.186;24.340;2023-07-31T11:55:22;5.20;;;4.32;;
27728;SDS011;15126;42.186;24.340;2023-07-31T11:57:50;5.07;;;4.68;;
27728;SDS011;15126;42.186;24.340;2023-07-31T12:00:20;6.35;;;5.20;;
27728;SDS011;15126;42.186;24.340;2023-07-31T12:02:51;5.43;;;4.88;;
27728;SDS011;15126;42.186;24.340;2023-07-31T12:05:22;4.78;;;4.15;;
27728;SDS011;15126;42.186;24.340;2023-07-31T12:07:53;5.28;;;4.80;;
27728;SDS011;15126;42.186;24.340;2023-07-31T12:10:24;5.05;;;4.55;;
27728;SDS011;15126;42.186;24.340;2023-07-31T12:12:56;5.50;;;4.97;;
27728;SDS011;15126;42.186;24.340;2023-07-31T12:15:28;6.45;;;4.80;;
27728;SDS011;15126;42.186;24.340;2023-07-31T12:18:03;4.18;;;3.88;;
27728;SDS011;15126;42.186;24.340;2023-07-31T12:20:33;4.50;;;4.20;;
27728;SDS011;15126;42.186;24.340;2023-07-31T12:23:00;4.53;;;4.22;;
27728;SDS011;15126;42.186;24.340;2023-07-31T12:25:31;7.40;;;4.40;;
27728;SDS011;15126;42.186;24.340;2023-07-31T12:28:05;4.15;;;3.85;;
27728;SDS011;15126;42.186;24.340;2023-07-31T12:30:36;4.18;;;3.88;;
27728;SDS011;15126;42.186;24.340;2023-07-31T12:33:14;4.93;;;4.20;;
27728;SDS011;15126;42.186;24.340;2023-07-31T12:35:43;3.80;;;3.50;;
27728;SDS011;15126;42.186;24.340;2023-07-31T12:38:14;3.80;;;3.50;;
27728;SDS011;15126;42.186;24.340;2023-07-31T12:40:41;3.75;;;3.45;;
27728;SDS011;15126;42.186;24.340;2023-07-31T12:43:08;4.78;;;3.65;;
27728;SDS011;15126;42.186;24.340;2023-07-31T12:45:35;3.95;;;3.63;;
27728;SDS011;15126;42.186;24.340;2023-07-31T12:48:02;4.47;;;3.92;;
27728;SDS011;15126;42.186;24.340;2023-07-31T12:50:29;3.72;;;3.42;;
27728;SDS011;15126;42.186;24.340;2023-07-31T12:52:57;4.40;;;3.78;;
27728;SDS011;15126;42.186;24.340;2023-07-31T12:55:24;3.58;;;3.38;;
27728;SDS011;15126;42.186;24.340;2023-07-31T12:57:51;3.67;;;3.40;;
27728;SDS011;15126;42.186;24.340;2023-07-31T13:00:18;3.92;;;3.30;;
27728;SDS011;15126;42.186;24.340;2023-07-31T13:02:45;2.90;;;2.55;;
27728;SDS011;15126;42.186;24.340;2023-07-31T13:05:11;3.83;;;3.53;;
27728;SDS011;15126;42.186;24.340;2023-07-31T13:07:39;3.53;;;3.17;;
27728;SDS011;15126;42.186;24.340;2023-07-31T13:10:08;4.07;;;2.88;;
27728;SDS011;15126;42.186;24.340;2023-07-31T13:12:35;4.45;;;3.55;;
27728;SDS011;15126;42.186;24.340;2023-07-31T13:15:03;3.70;;;2.78;;
27728;SDS011;15126;42.186;24.340;2023-07-31T13:17:31;2.80;;;2.60;;
27728;SDS011;15126;42.186;24.340;2023-07-31T13:19:58;2.72;;;2.53;;
27728;SDS011;15126;42.186;24.340;2023-07-31T13:22:26;3.03;;;2.72;;
27728;SDS011;15126;42.186;24.340;2023-07-31T13:24:53;2.90;;;2.47;;
27728;SDS011;15126;42.186;24.340;2023-07-31T13:27:21;2.97;;;2.70;;
27728;SDS011;15126;42.186;24.340;2023-07-31T13:29:49;5.78;;;2.50;;
27728;SDS011;15126;42.186;24.340;2023-07-31T13:32:17;3.33;;;2.20;;
27728;SDS011;15126;42.186;24.340;2023-07-31T13:34:45;2.22;;;1.90;;
27728;SDS011;15126;42.186;24.340;2023-07-31T13:37:15;3.22;;;2.20;;
27728;SDS011;15126;42.186;24.340;2023-07-31T13:39:42;2.22;;;2.10;;
27728;SDS011;15126;42.186;24.340;2023-07-31T13:42:12;2.42;;;2.10;;
27728;SDS011;15126;42.186;24.340;2023-07-31T13:44:44;2.45;;;1.75;;
27728;SDS011;15126;42.186;24.340;2023-07-31T13:47:11;3.05;;;1.98;;
27728;SDS011;15126;42.186;24.340;2023-07-31T13:49:38;3.17;;;2.38;;
27728;SDS011;15126;42.186;24.340;2023-07-31T13:52:05;2.38;;;2.28;;
27728;SDS011;15126;42.186;24.340;2023-07-31T13:54:32;2.70;;;2.50;;
27728;SDS011;15126;42.186;24.340;2023-07-31T13:56:59;2.50;;;2.30;;
27728;SDS011;15126;42.186;24.340;2023-07-31T13:59:26;4.97;;;1.92;;
27728;SDS011;15126;42.186;24.340;2023-07-31T14:01:57;2.53;;;2.40;;
27728;SDS011;15126;42.186;24.340;2023-07-31T14:04:33;2.72;;;2.10;;
27728;SDS011;15126;42.186;24.340;2023-07-31T14:07:00;2.55;;;2.45;;
27728;SDS011;15126;42.186;24.340;2023-07-31T14:09:26;3.85;;;2.55;;
27728;SDS011;15126;42.186;24.340;2023-07-31T14:11:53;3.45;;;1.92;;
27728;SDS011;15126;42.186;24.340;2023-07-31T14:14:20;3.20;;;2.42;;
27728;SDS011;15126;42.186;24.340;2023-07-31T14:16:47;4.57;;;2.15;;
27728;SDS011;15126;42.186;24.340;2023-07-31T14:19:15;2.10;;;2.00;;
27728;SDS011;15126;42.186;24.340;2023-07-31T14:21:42;5.57;;;2.53;;
27728;SDS011;15126;42.186;24.340;2023-07-31T14:24:08;3.17;;;2.22;;
27728;SDS011;15126;42.186;24.340;2023-07-31T14:26:35;3.13;;;1.80;;
27728;SDS011;15126;42.186;24.340;2023-07-31T14:29:05;2.80;;;2.60;;
27728;SDS011;15126;42.186;24.340;2023-07-31T14:31:31;2.80;;;2.33;;
27728;SDS011;15126;42.186;24.340;2023-07-31T14:33:58;1.90;;;1.80;;
27728;SDS011;15126;42.186;24.340;2023-07-31T14:36:26;2.40;;;2.20;;